Time;durP1;ratioP1;P1;durP2;ratioP2;P2;SDS_P1;SDS_P2;PMS_P1;PMS_P2;Temp;Humidity;BMP_temperature;BMP_pressure;BME280_temperature;BME280_humidity;BME280_pressure;Samples;Min_cycle;Max_cycle;Signal;HPM_P1;HPM_P2
2022/07/30 00:02:18;;;;;;;9.55;1.90;;;15.30;99.90;;;;;;5040915;28;20053;-70
2022/07/30 00:04:45;;;;;;;2.45;1.70;;;15.30;99.90;;;;;;5043549;28;20132;-70
2022/07/30 00:07:12;;;;;;;2.83;1.45;;;15.30;99.90;;;;;;5034883;28;20037;-70
2022/07/30 00:09:38;;;;;;;6.10;1.67;;;15.30;99.90;;;;;;5036048;28;20140;-70
2022/07/30 00:12:05;;;;;;;2.58;1.55;;;15.30;99.90;;;;;;5010557;28;20132;-70
2022/07/30 00:14:31;;;;;;;7.70;2.05;;;15.20;99.90;;;;;;5033302;28;20049;-70
2022/07/30 00:16:56;;;;;;;5.68;2.22;;;15.20;99.90;;;;;;5009655;28;20558;-70
2022/07/30 00:19:22;;;;;;;5.38;2.03;;;15.10;99.90;;;;;;5029050;28;20399;-70
2022/07/30 00:21:48;;;;;;;5.60;1.73;;;15.10;99.90;;;;;;5027165;28;20080;-71
2022/07/30 00:24:14;;;;;;;7.93;2.15;;;15.10;99.90;;;;;;5011341;28;20045;-70
2022/07/30 00:26:39;;;;;;;3.00;1.83;;;15.10;99.90;;;;;;5023870;28;20526;-70
2022/07/30 00:29:06;;;;;;;4.55;1.70;;;15.10;99.90;;;;;;5028630;28;20096;-70
2022/07/30 00:31:31;;;;;;;4.13;2.00;;;15.10;99.90;;;;;;5032370;28;20073;-70
2022/07/30 00:33:57;;;;;;;3.95;2.10;;;15.10;99.90;;;;;;4993155;28;20494;-70
2022/07/30 00:36:23;;;;;;;3.83;1.92;;;15.10;99.90;;;;;;5040738;28;20110;-71
2022/07/30 00:38:49;;;;;;;4.93;2.08;;;15.10;99.90;;;;;;5026742;28;20049;-70
2022/07/30 00:41:15;;;;;;;5.45;2.15;;;15.10;99.90;;;;;;5023141;28;20060;-70
2022/07/30 00:43:41;;;;;;;3.78;2.13;;;15.10;99.90;;;;;;5028608;28;20057;-71
2022/07/30 00:46:08;;;;;;;4.90;2.40;;;15.10;99.90;;;;;;5027303;28;20506;-70
2022/07/30 00:48:40;;;;;;;5.80;1.77;;;15.10;99.90;;;;;;5012695;28;20128;-70
2022/07/30 00:51:06;;;;;;;1.90;1.80;;;15.20;99.90;;;;;;5016322;28;20461;-71
2022/07/30 00:53:32;;;;;;;3.08;1.90;;;15.20;99.90;;;;;;5046618;28;20044;-70
2022/07/30 00:55:58;;;;;;;3.20;1.73;;;15.10;99.90;;;;;;5026765;28;20081;-70
2022/07/30 00:58:24;;;;;;;2.35;1.17;;;15.10;99.90;;;;;;5010749;28;20107;-70
2022/07/30 01:00:49;;;;;;;3.25;1.67;;;15.10;99.90;;;;;;5016701;28;20065;-70
2022/07/30 01:03:15;;;;;;;8.07;1.50;;;15.00;99.90;;;;;;5036856;28;20483;-70
2022/07/30 01:05:41;;;;;;;8.02;1.90;;;15.00;99.90;;;;;;5026988;28;20114;-70
2022/07/30 01:08:07;;;;;;;2.58;1.48;;;14.90;99.90;;;;;;5009500;28;20045;-70
2022/07/30 01:10:33;;;;;;;1.92;1.67;;;14.90;99.90;;;;;;5010619;28;20080;-70
2022/07/30 01:13:00;;;;;;;6.22;2.10;;;14.90;99.90;;;;;;5032513;28;20549;-70
2022/07/30 01:15:27;;;;;;;3.65;1.58;;;14.80;99.90;;;;;;5010557;28;20099;-70
2022/07/30 01:17:56;;;;;;;5.45;2.25;;;14.80;99.90;;;;;;5008039;28;20087;-70
2022/07/30 01:20:28;;;;;;;;;;;14.90;99.90;;;;;;5028369;28;20095;-70
2022/07/30 01:23:29;;;;;;;5.25;1.77;;;14.80;99.90;;;;;;5021646;28;19932;-70
2022/07/30 01:26:07;;;;;;;2.63;1.67;;;14.80;99.90;;;;;;4929354;29;20094;-70
2022/07/30 01:28:37;;;;;;;1.40;1.30;;;14.70;99.90;;;;;;5001243;28;20111;-70
2022/07/30 01:31:05;;;;;;;2.40;1.80;;;14.70;99.90;;;;;;5027468;28;20053;-70
2022/07/30 01:33:33;;;;;;;3.90;1.80;;;14.70;99.90;;;;;;5047543;28;20054;-70
2022/07/30 01:36:01;;;;;;;6.40;1.70;;;14.70;99.90;;;;;;5046245;28;20040;-71
2022/07/30 01:38:27;;;;;;;2.22;1.65;;;14.70;99.90;;;;;;5021480;28;20053;-70
2022/07/30 01:41:00;;;;;;;3.03;1.58;;;14.60;99.90;;;;;;5025141;28;20048;-70
2022/07/30 01:43:27;;;;;;;4.93;1.90;;;14.60;99.90;;;;;;5007817;28;20049;-70
2022/07/30 01:45:54;;;;;;;4.07;2.10;;;14.50;99.90;;;;;;5027130;28;20095;-71
2022/07/30 01:48:22;;;;;;;6.05;2.38;;;14.50;99.90;;;;;;5011823;28;20555;-70
2022/07/30 01:50:51;;;;;;;6.15;2.58;;;14.50;99.90;;;;;;5027313;28;20045;-70
2022/07/30 01:53:21;;;;;;;5.88;2.78;;;14.60;99.90;;;;;;5008615;28;20439;-70
2022/07/30 01:55:48;;;;;;;2.97;2.67;;;14.60;99.90;;;;;;5034907;28;20049;-70
2022/07/30 01:58:17;;;;;;;4.65;3.15;;;14.70;99.90;;;;;;5014805;28;20057;-70
2022/07/30 02:00:44;;;;;;;9.00;3.30;;;14.70;99.90;;;;;;5038048;28;20057;-70
2022/07/30 02:03:11;;;;;;;5.97;2.58;;;14.70;99.90;;;;;;5046166;28;20045;-70
2022/07/30 02:05:39;;;;;;;2.28;2.10;;;14.70;99.90;;;;;;5027364;28;20048;-70
2022/07/30 02:08:16;;;;;;;4.55;3.20;;;14.60;99.90;;;;;;5046975;28;20049;-70
2022/07/30 02:10:48;;;;;;;3.13;2.92;;;14.70;99.90;;;;;;5056494;28;20397;-70
2022/07/30 02:13:21;;;;;;;5.13;3.80;;;14.70;99.90;;;;;;5033281;28;20075;-70
2022/07/30 02:16:12;;;;;;;7.35;3.72;;;14.70;99.90;;;;;;5059077;28;20103;-71
2022/07/30 02:19:19;;;;;;;5.20;3.90;;;14.70;99.90;;;;;;5027162;28;20106;-70
2022/07/30 02:21:48;;;;;;;10.48;3.38;;;14.70;99.90;;;;;;5051206;28;20044;-71
2022/07/30 02:24:20;;;;;;;6.93;2.83;;;14.70;99.90;;;;;;5051895;28;20053;-70
2022/07/30 02:26:50;;;;;;;2.80;2.22;;;14.60;99.90;;;;;;5019101;28;20079;-71
2022/07/30 02:29:19;;;;;;;7.30;2.80;;;14.40;99.90;;;;;;5031322;28;20044;-70
2022/07/30 02:31:47;;;;;;;3.28;2.58;;;14.30;99.90;;;;;;5028905;28;20052;-71
2022/07/30 02:34:21;;;;;;;5.70;2.85;;;14.30;99.90;;;;;;5050878;28;20124;-70
2022/07/30 02:36:50;;;;;;;5.30;3.20;;;14.20;99.90;;;;;;5046395;28;20387;-71
2022/07/30 02:39:17;;;;;;;3.22;3.03;;;14.10;99.90;;;;;;5040512;28;20049;-70
2022/07/30 02:41:45;;;;;;;4.38;2.65;;;14.10;99.90;;;;;;5029727;28;20088;-70
2022/07/30 02:44:11;;;;;;;4.70;2.97;;;14.10;99.90;;;;;;5057150;28;20037;-71
2022/07/30 02:46:38;;;;;;;3.00;2.80;;;14.10;99.90;;;;;;5048920;28;20578;-70
2022/07/30 02:49:08;;;;;;;4.50;2.97;;;14.10;99.90;;;;;;5027279;28;20064;-70
2022/07/30 02:51:34;;;;;;;2.53;2.22;;;14.10;99.90;;;;;;5046891;28;20053;-70
2022/07/30 02:54:02;;;;;;;5.70;2.88;;;14.10;99.90;;;;;;5052781;28;20115;-70
2022/07/30 02:56:29;;;;;;;2.92;2.67;;;14.00;99.90;;;;;;5036123;28;20053;-70
2022/07/30 02:58:57;;;;;;;2.40;2.20;;;14.00;99.90;;;;;;5032646;28;20041;-70
2022/07/30 03:01:24;;;;;;;8.85;2.97;;;14.00;99.90;;;;;;5056851;28;20087;-71
2022/07/30 03:03:51;;;;;;;6.50;2.60;;;13.90;99.90;;;;;;5051235;28;20079;-70
2022/07/30 03:06:17;;;;;;;3.15;2.70;;;13.90;99.90;;;;;;5057486;28;20107;-70
2022/07/30 03:08:44;;;;;;;3.13;2.08;;;13.90;99.90;;;;;;5050265;28;20517;-70
2022/07/30 03:11:11;;;;;;;3.72;2.05;;;13.90;99.90;;;;;;5031266;28;20142;-70
2022/07/30 03:13:37;;;;;;;2.33;2.13;;;13.80;99.90;;;;;;5049325;28;20553;-70
2022/07/30 03:16:08;;;;;;;6.68;2.75;;;13.80;99.90;;;;;;5046481;28;20052;-70
2022/07/30 03:18:36;;;;;;;1.65;1.55;;;13.80;99.90;;;;;;5048914;28;20041;-70
2022/07/30 03:21:05;;;;;;;4.18;1.98;;;13.80;99.90;;;;;;5031874;28;20099;-70
2022/07/30 03:23:33;;;;;;;1.80;1.70;;;13.70;99.90;;;;;;5030711;28;20040;-70
2022/07/30 03:26:01;;;;;;;1.83;1.70;;;13.70;99.90;;;;;;5059583;28;20417;-71
2022/07/30 03:28:31;;;;;;;3.83;2.35;;;13.60;99.90;;;;;;5049440;28;20079;-71
2022/07/30 03:30:57;;;;;;;;;;;13.60;99.90;;;;;;5032727;28;20045;-71
2022/07/30 03:33:23;;;;;;;101.40;4.63;;;13.60;99.90;;;;;;5032519;28;19927;-70
2022/07/30 03:35:50;;;;;;;162.15;4.72;;;13.60;99.90;;;;;;5054070;28;20098;-70
2022/07/30 03:38:18;;;;;;;7.13;2.70;;;13.60;99.90;;;;;;5031904;28;20049;-71
2022/07/30 03:40:45;;;;;;;8.35;3.45;;;13.50;99.90;;;;;;5030293;28;20045;-70
2022/07/30 03:43:12;;;;;;;5.60;2.47;;;13.40;99.90;;;;;;5049613;28;20059;-70
2022/07/30 03:45:40;;;;;;;2.70;2.22;;;13.30;99.90;;;;;;5057721;28;20672;-70
2022/07/30 03:48:08;;;;;;;4.80;2.50;;;13.30;99.90;;;;;;5048576;28;20045;-70
2022/07/30 03:50:40;;;;;;;6.15;3.03;;;13.30;99.90;;;;;;5057715;28;20500;-71
2022/07/30 03:53:08;;;;;;;5.85;3.28;;;13.20;99.90;;;;;;5029712;28;20086;-70
2022/07/30 03:55:35;;;;;;;4.60;2.70;;;13.20;99.90;;;;;;5031724;28;20482;-71
2022/07/30 03:58:01;;;;;;;6.18;2.95;;;13.10;99.90;;;;;;5032266;28;20135;-70
2022/07/30 04:00:27;;;;;;;5.03;2.90;;;13.10;99.90;;;;;;5031142;28;20037;-70
2022/07/30 04:02:55;;;;;;;3.33;3.13;;;13.10;99.90;;;;;;5055307;28;20048;-70
2022/07/30 04:05:21;;;;;;;5.32;3.90;;;13.10;99.90;;;;;;5048052;28;20044;-70
2022/07/30 04:07:47;;;;;;;6.93;3.33;;;13.10;99.90;;;;;;5049350;28;20075;-70
2022/07/30 04:10:14;;;;;;;4.30;3.22;;;13.10;99.90;;;;;;5029383;28;20052;-71
2022/07/30 04:12:40;;;;;;;6.38;3.50;;;13.10;99.90;;;;;;5031509;28;20057;-71
2022/07/30 04:15:07;;;;;;;14.57;4.70;;;13.00;99.90;;;;;;5047108;28;20063;-71
2022/07/30 04:17:42;;;;;;;9.05;4.63;;;13.00;99.90;;;;;;5034236;28;20040;-70
2022/07/30 04:20:28;;;;;;;8.75;4.13;;;13.00;99.90;;;;;;5047577;28;20049;-71
2022/07/30 04:22:56;;;;;;;11.07;4.18;;;13.10;99.90;;;;;;5047882;28;20392;-71
2022/07/30 04:25:22;;;;;;;5.57;4.53;;;13.10;99.90;;;;;;5048441;28;20049;-71
2022/07/30 04:27:48;;;;;;;10.15;4.65;;;13.10;99.90;;;;;;5049760;28;20036;-71
2022/07/30 04:30:14;;;;;;;9.65;5.03;;;13.10;99.90;;;;;;5065463;28;20487;-71
2022/07/30 04:32:41;;;;;;;16.70;4.97;;;13.10;99.90;;;;;;5033338;28;20087;-71
2022/07/30 04:35:07;;;;;;;19.80;6.85;;;13.20;99.90;;;;;;5037463;28;20036;-71
2022/07/30 04:37:33;;;;;;;13.18;4.22;;;13.30;99.90;;;;;;5055019;28;20317;-70
2022/07/30 04:39:59;;;;;;;13.77;5.10;;;13.30;99.90;;;;;;5047864;28;20479;-71
2022/07/30 04:42:26;;;;;;;8.93;5.05;;;13.30;99.90;;;;;;5057470;28;20478;-70
2022/07/30 04:44:52;;;;;;;9.10;5.82;;;13.40;99.90;;;;;;5012516;28;20490;-70
2022/07/30 04:47:19;;;;;;;9.75;5.10;;;13.50;99.90;;;;;;5030369;28;20553;-70
2022/07/30 04:49:46;;;;;;;8.55;5.00;;;13.50;99.90;;;;;;5046791;28;20045;-70
2022/07/30 04:52:13;;;;;;;9.05;4.45;;;13.50;99.90;;;;;;5028175;28;20044;-70
2022/07/30 04:54:45;;;;;;;8.38;6.15;;;13.50;99.90;;;;;;5053723;28;20029;-70
2022/07/30 04:57:12;;;;;;;8.38;5.85;;;13.60;99.90;;;;;;5047542;28;20053;-71
2022/07/30 04:59:39;;;;;;;9.90;6.68;;;13.70;99.90;;;;;;5042822;28;20510;-71
2022/07/30 05:02:06;;;;;;;9.73;5.93;;;13.90;99.90;;;;;;5047595;28;20040;-71
2022/07/30 05:04:33;;;;;;;9.75;6.05;;;14.00;99.90;;;;;;5039393;28;20392;-71
2022/07/30 05:07:01;;;;;;;8.77;6.00;;;14.10;99.90;;;;;;5046602;28;20087;-71
2022/07/30 05:09:28;;;;;;;9.95;6.35;;;14.20;99.90;;;;;;5013852;28;20045;-71
2022/07/30 05:11:55;;;;;;;9.55;7.30;;;14.40;99.90;;;;;;5052154;28;20080;-71
2022/07/30 05:14:23;;;;;;;12.95;7.40;;;14.50;99.90;;;;;;5032761;28;20048;-71
2022/07/30 05:16:50;;;;;;;8.82;7.75;;;14.60;99.90;;;;;;5054037;28;20051;-71
2022/07/30 05:19:17;;;;;;;13.15;9.13;;;14.80;99.90;;;;;;5048987;28;20048;-70
2022/07/30 05:21:43;;;;;;;8.52;7.40;;;14.80;99.90;;;;;;5036333;28;20040;-71
2022/07/30 05:24:09;;;;;;;11.45;8.90;;;14.90;99.90;;;;;;5065617;28;20040;-70
2022/07/30 05:26:35;;;;;;;15.75;9.57;;;15.10;99.90;;;;;;5067646;28;20055;-70
2022/07/30 05:29:01;;;;;;;17.45;9.40;;;15.00;99.90;;;;;;5066150;28;20044;-71
2022/07/30 05:31:29;;;;;;;12.85;8.77;;;15.20;99.90;;;;;;5063960;28;20048;-70
2022/07/30 05:33:55;;;;;;;14.48;9.27;;;15.30;99.90;;;;;;5051265;28;20178;-70
2022/07/30 05:36:21;;;;;;;12.90;8.82;;;15.40;99.90;;;;;;5062631;28;20538;-70
2022/07/30 05:38:48;;;;;;;18.17;8.80;;;15.40;99.90;;;;;;5032327;28;20049;-70
2022/07/30 05:41:14;;;;;;;17.10;9.65;;;15.50;99.90;;;;;;5048930;28;20127;-70
2022/07/30 05:43:40;;;;;;;10.73;8.88;;;15.60;99.90;;;;;;5037768;28;20045;-70
2022/07/30 05:46:06;;;;;;;14.70;9.20;;;15.60;99.90;;;;;;5065251;28;20571;-70
2022/07/30 05:48:34;;;;;;;21.02;10.07;;;15.70;99.90;;;;;;5035113;28;20083;-70
2022/07/30 05:51:01;;;;;;;14.75;9.70;;;15.80;99.90;;;;;;5024090;28;20036;-70
2022/07/30 05:53:26;;;;;;;15.30;9.77;;;15.90;99.90;;;;;;5019979;28;20040;-70
2022/07/30 05:55:52;;;;;;;19.20;9.13;;;16.00;99.90;;;;;;5067001;28;20052;-70
2022/07/30 05:58:18;;;;;;;13.25;9.63;;;16.10;99.90;;;;;;5035519;28;20139;-70
2022/07/30 06:00:44;;;;;;;11.85;8.93;;;16.10;99.90;;;;;;5037569;28;20049;-70
2022/07/30 06:03:10;;;;;;;16.10;9.27;;;16.20;99.90;;;;;;5065021;28;20464;-70
2022/07/30 06:05:36;;;;;;;17.65;8.57;;;16.20;99.90;;;;;;5055435;28;20051;-70
2022/07/30 06:08:02;;;;;;;19.20;10.07;;;16.30;99.90;;;;;;5065445;28;20486;-70
2022/07/30 06:10:28;;;;;;;18.60;9.15;;;16.40;99.90;;;;;;5032914;28;20053;-70
2022/07/30 06:12:54;;;;;;;17.77;9.10;;;16.50;99.90;;;;;;5046417;28;20064;-70
2022/07/30 06:15:20;;;;;;;14.38;8.38;;;16.60;99.90;;;;;;5028116;28;20071;-70
2022/07/30 06:17:47;;;;;;;14.30;8.63;;;16.60;99.90;;;;;;5030285;28;20482;-70
2022/07/30 06:20:15;;;;;;;16.17;8.50;;;16.70;99.90;;;;;;5030203;28;20070;-70
2022/07/30 06:22:40;;;;;;;15.25;8.88;;;16.80;99.90;;;;;;5032473;28;20052;-71
2022/07/30 06:25:07;;;;;;;15.35;9.02;;;16.90;99.90;;;;;;5027204;28;20053;-70
2022/07/30 06:27:35;;;;;;;15.23;8.27;;;16.90;99.90;;;;;;5028414;28;20092;-70
2022/07/30 06:30:02;;;;;;;12.88;8.73;;;17.00;99.90;;;;;;5028916;28;20064;-70
2022/07/30 06:32:28;;;;;;;15.68;9.43;;;17.10;99.90;;;;;;5047002;28;20053;-71
2022/07/30 06:34:53;;;;;;;18.88;8.82;;;17.20;99.90;;;;;;5046629;28;20447;-70
2022/07/30 06:37:19;;;;;;;10.13;7.15;;;17.30;99.90;;;;;;5044866;28;20056;-71
2022/07/30 06:39:45;;;;;;;13.98;7.80;;;17.40;99.90;;;;;;5011725;28;20936;-71
2022/07/30 06:42:11;;;;;;;16.40;8.45;;;17.50;99.90;;;;;;5038503;28;20072;-70
2022/07/30 06:44:36;;;;;;;19.67;8.00;;;17.60;99.90;;;;;;5042231;28;20120;-70
2022/07/30 06:47:02;;;;;;;13.20;7.95;;;17.70;99.90;;;;;;5027623;28;20160;-70
2022/07/30 06:49:30;;;;;;;11.00;7.40;;;17.80;99.90;;;;;;5056900;28;20052;-70
2022/07/30 06:51:56;;;;;;;18.13;7.13;;;18.00;99.90;;;;;;5047247;28;20041;-70
2022/07/30 06:54:22;;;;;;;14.35;6.55;;;18.10;99.90;;;;;;5035043;28;20414;-70
2022/07/30 06:56:50;;;;;;;11.52;7.00;;;18.30;99.90;;;;;;5057850;28;20124;-70
2022/07/30 06:59:16;;;;;;;13.35;6.68;;;18.50;99.90;;;;;;5026472;28;20123;-71
2022/07/30 07:01:42;;;;;;;20.80;6.75;;;18.60;99.90;;;;;;5046967;28;20057;-71
2022/07/30 07:04:08;;;;;;;8.82;5.85;;;18.70;99.90;;;;;;5064540;28;20102;-71
2022/07/30 07:06:34;;;;;;;8.90;5.53;;;18.90;99.90;;;;;;5065232;28;20041;-71
2022/07/30 07:08:59;;;;;;;15.30;5.95;;;19.00;99.90;;;;;;5032002;28;20079;-71
2022/07/30 07:11:25;;;;;;;9.88;5.28;;;19.10;99.90;;;;;;5055511;28;20094;-70
2022/07/30 07:13:51;;;;;;;17.17;5.82;;;19.20;99.90;;;;;;5045776;28;20072;-72
2022/07/30 07:16:24;;;;;;;11.13;5.28;;;19.30;99.90;;;;;;5060204;28;20052;-71
2022/07/30 07:18:51;;;;;;;15.63;5.45;;;19.50;99.90;;;;;;5044598;28;20067;-70
2022/07/30 07:21:17;;;;;;;10.13;6.10;;;19.70;99.90;;;;;;5054088;28;20067;-70
2022/07/30 07:23:43;;;;;;;12.55;5.72;;;19.90;99.90;;;;;;5066315;28;20079;-70
2022/07/30 07:26:10;;;;;;;12.95;5.63;;;20.10;99.90;;;;;;5065270;28;20552;-70
2022/07/30 07:28:38;;;;;;;12.85;5.00;;;20.30;99.90;;;;;;5065246;28;20128;-70
2022/07/30 07:31:04;;;;;;;11.50;4.72;;;20.60;99.90;;;;;;5040286;28;20053;-70
2022/07/30 07:33:30;;;;;;;13.93;4.38;;;20.80;99.90;;;;;;5041780;28;20116;-70
2022/07/30 07:35:56;;;;;;;26.30;4.93;;;21.00;99.90;;;;;;5054124;28;20140;-70
2022/07/30 07:38:28;;;;;;;26.45;5.60;;;21.30;99.90;;;;;;5030114;28;20083;-71
2022/07/30 07:40:53;;;;;;;10.48;4.43;;;21.60;97.00;;;;;;5045965;28;20073;-70
2022/07/30 07:43:19;;;;;;;8.52;4.65;;;21.90;95.00;;;;;;5036448;28;20111;-70
2022/07/30 07:45:45;;;;;;;13.30;4.57;;;22.00;94.10;;;;;;5032945;28;20052;-70
2022/07/30 07:48:11;;;;;;;9.52;4.43;;;22.20;92.00;;;;;;5035450;28;20037;-70
2022/07/30 07:50:37;;;;;;;8.55;4.70;;;22.50;92.00;;;;;;5048309;28;20049;-69
2022/07/30 07:53:03;;;;;;;15.52;5.03;;;22.60;88.90;;;;;;5050522;28;20120;-70
2022/07/30 07:55:29;;;;;;;10.00;5.13;;;22.60;90.80;;;;;;5026299;28;20132;-70
2022/07/30 07:57:54;;;;;;;9.27;5.70;;;22.60;96.20;;;;;;5049042;28;20083;-70
2022/07/30 08:00:22;;;;;;;10.38;4.57;;;22.60;91.20;;;;;;5030799;28;20071;-71
2022/07/30 08:02:48;;;;;;;10.50;5.40;;;22.70;91.00;;;;;;5045579;28;20066;-70
2022/07/30 08:05:14;;;;;;;10.23;6.05;;;22.90;85.10;;;;;;5061677;28;20070;-70
2022/07/30 08:07:41;;;;;;;8.70;5.85;;;23.10;91.20;;;;;;5047069;28;20095;-71
2022/07/30 08:10:08;;;;;;;8.45;6.00;;;23.30;84.00;;;;;;5040682;28;20048;-71
2022/07/30 08:12:34;;;;;;;10.75;5.75;;;23.40;87.50;;;;;;5051523;28;20047;-70
2022/07/30 08:15:00;;;;;;;7.88;5.00;;;23.50;85.40;;;;;;5048462;28;20059;-70
2022/07/30 08:17:26;;;;;;;10.90;6.47;;;23.30;82.00;;;;;;5060021;28;20128;-71
2022/07/30 08:19:51;;;;;;;6.88;5.85;;;23.10;88.60;;;;;;5061359;28;20124;-70
2022/07/30 08:22:17;;;;;;;11.00;5.97;;;23.00;90.20;;;;;;5064464;28;20483;-70
2022/07/30 08:24:43;;;;;;;9.43;6.10;;;22.90;93.60;;;;;;5065693;28;20446;-70
2022/07/30 08:27:09;;;;;;;10.60;5.18;;;23.00;90.40;;;;;;5066669;28;20048;-70
2022/07/30 08:29:34;;;;;;;7.35;5.00;;;22.90;85.20;;;;;;5033734;28;20064;-70
2022/07/30 08:32:01;;;;;;;8.13;4.65;;;22.80;86.30;;;;;;5039669;28;20041;-70
2022/07/30 08:34:28;;;;;;;8.93;4.57;;;22.70;78.60;;;;;;5059380;28;20082;-70
2022/07/30 08:36:55;;;;;;;9.15;4.35;;;22.70;80.90;;;;;;5066355;28;20063;-70
2022/07/30 08:39:21;;;;;;;7.80;4.53;;;22.90;90.00;;;;;;5045338;28;20056;-70
2022/07/30 08:41:47;;;;;;;21.98;4.82;;;22.80;85.40;;;;;;5065613;28;20098;-71
2022/07/30 08:44:18;;;;;;;7.22;3.80;;;22.80;79.10;;;;;;5065509;28;20098;-69
2022/07/30 08:46:46;;;;;;;11.93;4.03;;;22.70;76.50;;;;;;5061519;28;20071;-70
2022/07/30 08:49:13;;;;;;;6.35;3.97;;;22.80;72.50;;;;;;5057218;28;20102;-69
2022/07/30 08:51:38;;;;;;;9.90;4.07;;;22.90;79.70;;;;;;5044793;28;20048;-70
2022/07/30 08:54:05;;;;;;;7.40;3.88;;;23.00;72.90;;;;;;5043467;28;20049;-70
2022/07/30 08:56:32;;;;;;;17.90;4.97;;;23.20;80.70;;;;;;5049225;28;20098;-70
2022/07/30 08:59:01;;;;;;;13.00;3.92;;;23.30;72.50;;;;;;5033692;28;20037;-70
2022/07/30 09:01:27;;;;;;;14.88;4.45;;;23.40;75.50;;;;;;5052052;28;20059;-70
2022/07/30 09:03:53;;;;;;;9.10;4.13;;;23.40;69.40;;;;;;5042104;28;20041;-71
2022/07/30 09:06:19;;;;;;;6.30;3.30;;;23.50;70.30;;;;;;5056615;28;20051;-70
2022/07/30 09:08:44;;;;;;;7.85;3.50;;;23.60;71.10;;;;;;5011663;28;20041;-70
2022/07/30 09:11:10;;;;;;;8.13;4.13;;;23.50;64.10;;;;;;5060855;28;20049;-70
2022/07/30 09:13:41;;;;;;;4.55;3.25;;;23.50;77.60;;;;;;5046729;28;20048;-70
2022/07/30 09:16:23;;;;;;;9.30;4.05;;;23.50;68.50;;;;;;5048154;28;20037;-71
2022/07/30 09:18:50;;;;;;;7.38;3.85;;;23.50;70.20;;;;;;5047408;28;20335;-70
2022/07/30 09:21:27;;;;;;;8.65;3.83;;;23.50;71.10;;;;;;5027834;28;20127;-70
2022/07/30 09:23:58;;;;;;;6.65;3.95;;;23.50;65.10;;;;;;5060486;28;20083;-70
2022/07/30 09:26:24;;;;;;;9.68;4.07;;;23.40;63.00;;;;;;5050825;28;20072;-70
2022/07/30 09:28:51;;;;;;;7.15;3.50;;;23.30;76.30;;;;;;5023326;28;20091;-70
2022/07/30 09:31:17;;;;;;;7.45;3.78;;;23.30;75.70;;;;;;5050637;28;20044;-71
2022/07/30 09:33:45;;;;;;;12.00;4.47;;;23.10;70.90;;;;;;5054799;28;20032;-71
2022/07/30 09:36:14;;;;;;;6.45;3.50;;;23.10;79.10;;;;;;5054857;28;20041;-71
2022/07/30 09:38:54;;;;;;;11.10;4.15;;;23.40;70.80;;;;;;5041684;28;20067;-70
2022/07/30 09:41:32;;;;;;;10.20;3.63;;;23.30;79.90;;;;;;5066066;28;20047;-73
2022/07/30 09:44:01;;;;;;;9.55;3.90;;;23.40;73.10;;;;;;5065606;28;20356;-71
2022/07/30 09:46:49;;;;;;;10.70;3.20;;;23.60;82.90;;;;;;5066793;28;20478;-71
2022/07/30 09:49:16;;;;;;;9.18;4.15;;;23.60;72.40;;;;;;5066515;28;20049;-71
2022/07/30 09:51:41;;;;;;;6.70;4.00;;;23.10;73.00;;;;;;5039445;28;20573;-71
2022/07/30 09:54:07;;;;;;;11.43;4.07;;;22.80;84.20;;;;;;5067155;28;20495;-70
2022/07/30 09:56:33;;;;;;;9.60;3.75;;;22.50;85.50;;;;;;5054869;28;20135;-70
2022/07/30 09:58:59;;;;;;;9.30;3.35;;;22.50;86.00;;;;;;5043855;28;20128;-70
2022/07/30 10:01:25;;;;;;;4.57;2.80;;;22.40;86.60;;;;;;5041158;28;20076;-70
2022/07/30 10:03:51;;;;;;;5.53;2.95;;;22.30;86.60;;;;;;5047371;28;20049;-70
2022/07/30 10:06:16;;;;;;;7.50;3.20;;;22.20;84.10;;;;;;5045402;28;20037;-71
2022/07/30 10:08:50;;;;;;;13.43;4.90;;;22.20;96.90;;;;;;5050270;28;20464;-71
2022/07/30 10:11:21;;;;;;;9.50;4.70;;;22.20;97.00;;;;;;5053619;28;20051;-71
2022/07/30 10:13:49;;;;;;;11.90;4.72;;;22.20;96.20;;;;;;5033914;28;20140;-71
2022/07/30 10:16:15;;;;;;;9.38;4.57;;;22.40;98.00;;;;;;5046431;28;20041;-71
2022/07/30 10:18:42;;;;;;;7.88;5.07;;;22.50;96.30;;;;;;5029262;28;20123;-71
2022/07/30 10:21:08;;;;;;;14.60;4.45;;;22.50;94.60;;;;;;5051470;28;20094;-71
2022/07/30 10:23:35;;;;;;;7.80;4.60;;;22.50;94.80;;;;;;5057586;28;20479;-70
2022/07/30 10:26:02;;;;;;;11.02;4.32;;;22.40;96.30;;;;;;5052053;28;20074;-70
2022/07/30 10:28:29;;;;;;;14.90;4.38;;;22.30;98.80;;;;;;5051345;28;20662;-71
2022/07/30 10:30:56;;;;;;;7.57;4.00;;;22.50;99.90;;;;;;5050022;28;20040;-71
2022/07/30 10:33:24;;;;;;;7.72;3.97;;;22.50;99.70;;;;;;5038753;28;20738;-71
2022/07/30 10:35:50;;;;;;;9.43;4.03;;;22.30;99.90;;;;;;5050129;28;20052;-71
2022/07/30 10:38:20;;;;;;;12.20;3.85;;;22.30;99.90;;;;;;5063101;28;20037;-71
2022/07/30 10:40:51;;;;;;;8.45;3.35;;;22.20;99.90;;;;;;5028905;28;20041;-70
2022/07/30 10:43:35;;;;;;;9.95;3.40;;;22.20;99.90;;;;;;5042885;28;20048;-72
2022/07/30 10:46:33;;;;;;;15.38;3.88;;;22.20;99.90;;;;;;5063594;28;20044;-71
2022/07/30 10:49:15;;;;;;;9.32;3.55;;;22.40;99.90;;;;;;5028311;28;20049;-72
2022/07/30 10:51:45;;;;;;;11.88;3.35;;;22.50;99.90;;;;;;5060154;28;20041;-72
2022/07/30 10:54:37;;;;;;;8.10;2.60;;;22.70;99.90;;;;;;5050194;28;20045;-71
2022/07/30 10:57:13;;;;;;;6.15;2.38;;;22.50;99.90;;;;;;5049066;28;20400;-71
2022/07/30 10:59:48;;;;;;;9.57;2.28;;;22.40;99.90;;;;;;5028374;28;20099;-71
2022/07/30 11:02:15;;;;;;;9.95;2.80;;;22.10;99.90;;;;;;5032105;28;20402;-71
2022/07/30 11:04:42;;;;;;;9.55;2.67;;;21.80;99.90;;;;;;5033192;28;20044;-71
2022/07/30 11:07:22;;;;;;;10.75;3.13;;;21.80;99.90;;;;;;5064803;28;20090;-71
2022/07/30 11:09:49;;;;;;;12.68;2.85;;;22.10;99.90;;;;;;5047314;28;20059;-71
2022/07/30 11:12:41;;;;;;;9.80;2.80;;;22.30;99.90;;;;;;5046235;28;20087;-72
2022/07/30 11:15:11;;;;;;;5.43;2.38;;;22.30;99.90;;;;;;5047149;28;20045;-71
2022/07/30 11:17:57;;;;;;;6.20;2.20;;;22.20;99.90;;;;;;5048722;28;20562;-71
2022/07/30 11:20:22;;;;;;;9.30;2.28;;;22.30;99.90;;;;;;5031786;28;20057;-71
2022/07/30 11:22:48;;;;;;;6.80;2.60;;;22.40;99.90;;;;;;5061627;28;20033;-71
2022/07/30 11:25:26;;;;;;;8.48;2.42;;;22.30;99.90;;;;;;5059630;28;20072;-71
2022/07/30 11:27:52;;;;;;;9.30;2.95;;;22.10;99.90;;;;;;5065200;28;20051;-71
2022/07/30 11:30:21;;;;;;;12.98;2.33;;;22.10;99.90;;;;;;5058446;28;20130;-71
2022/07/30 11:32:48;;;;;;;7.32;2.72;;;22.00;99.90;;;;;;5038488;28;20049;-71
2022/07/30 11:35:27;;;;;;;8.98;2.70;;;22.20;99.90;;;;;;5049581;28;20043;-71
2022/07/30 11:38:10;;;;;;;9.15;2.65;;;22.40;99.90;;;;;;5040321;28;20056;-71
2022/07/30 11:40:55;;;;;;;6.97;2.42;;;22.60;99.90;;;;;;5045090;28;20387;-70
2022/07/30 11:43:32;;;;;;;5.78;2.60;;;22.50;99.90;;;;;;5065014;28;20394;-71
2022/07/30 11:46:10;;;;;;;12.45;4.55;;;22.40;99.90;;;;;;5039206;28;20573;-71
2022/07/30 11:48:43;;;;;;;9.02;4.40;;;22.30;99.90;;;;;;5052885;28;20048;-72
2022/07/30 11:51:09;;;;;;;12.80;5.05;;;22.10;99.90;;;;;;5069220;28;20040;-71
2022/07/30 11:53:35;;;;;;;4.38;2.50;;;22.00;99.90;;;;;;5052802;28;20053;-71
2022/07/30 11:56:02;;;;;;;4.63;2.17;;;22.10;99.90;;;;;;5058183;28;20052;-72
2022/07/30 11:58:31;;;;;;;7.95;2.47;;;22.10;99.90;;;;;;5061069;28;20037;-71
2022/07/30 12:01:05;;;;;;;4.55;1.67;;;22.30;99.90;;;;;;5055953;28;20110;-72
2022/07/30 12:03:32;;;;;;;7.88;2.33;;;22.30;99.90;;;;;;5063685;28;20052;-71
2022/07/30 12:06:12;;;;;;;5.72;1.55;;;22.10;99.90;;;;;;5029103;28;20153;-71
2022/07/30 12:08:43;;;;;;;5.40;2.17;;;22.00;99.90;;;;;;5061852;28;21795;-70
2022/07/30 12:11:09;;;;;;;6.13;2.03;;;22.00;99.90;;;;;;5049933;28;20044;-71
2022/07/30 12:13:35;;;;;;;7.55;2.17;;;21.90;99.90;;;;;;5047967;28;20044;-71
2022/07/30 12:16:09;;;;;;;7.38;1.90;;;21.70;99.90;;;;;;5048323;28;20054;-70
2022/07/30 12:18:36;;;;;;;9.90;2.30;;;21.60;99.90;;;;;;5031125;28;20440;-70
2022/07/30 12:21:07;;;;;;;24.13;4.00;;;21.50;99.90;;;;;;5048231;28;20056;-67
2022/07/30 12:23:34;;;;;;;12.52;4.78;;;21.30;99.90;;;;;;5047500;28;20122;-67
2022/07/30 12:26:00;;;;;;;7.57;2.80;;;21.00;99.90;;;;;;5048024;28;20044;-67
2022/07/30 12:28:31;;;;;;;5.63;2.60;;;20.90;99.90;;;;;;5035967;28;20036;-67
2022/07/30 12:30:59;;;;;;;4.82;2.30;;;20.80;99.90;;;;;;5031094;28;20470;-67
2022/07/30 12:33:25;;;;;;;12.13;2.05;;;20.70;99.90;;;;;;5041598;28;20048;-68
2022/07/30 12:35:54;;;;;;;7.50;2.25;;;20.70;99.90;;;;;;5048521;28;20049;-67
2022/07/30 12:38:21;;;;;;;5.35;1.70;;;20.70;99.90;;;;;;5030383;28;20359;-67
2022/07/30 12:40:57;;;;;;;4.82;2.00;;;20.80;99.90;;;;;;5028776;28;20072;-68
2022/07/30 12:43:41;;;;;;;4.40;1.80;;;21.00;99.90;;;;;;5030438;28;20131;-68
2022/07/30 12:46:08;;;;;;;5.15;2.38;;;21.10;99.90;;;;;;5042873;28;20052;-68
2022/07/30 12:48:33;;;;;;;6.05;2.13;;;21.20;99.90;;;;;;5034983;28;20032;-67
2022/07/30 12:51:09;;;;;;;12.88;1.67;;;21.30;99.90;;;;;;5056459;28;20067;-68